Time;durP1;ratioP1;P1;durP2;ratioP2;P2;SDS_P1;SDS_P2;PMS_P1;PMS_P2;Temp;Humidity;BMP_temperature;BMP_pressure;BME280_temperature;BME280_humidity;BME280_pressure;Samples;Min_cycle;Max_cycle;Signal;HPM_P1;HPM_P2
2022/04/08 00:00:37;;;;;;;0.20;0.20;;;8.90;99.90;;;;;;4989369;28;20204;-82
2022/04/08 00:03:03;;;;;;;0.20;0.20;;;8.90;99.90;;;;;;4986137;28;20208;-83
2022/04/08 00:05:28;;;;;;;0.10;0.10;;;8.90;99.90;;;;;;4986969;28;20216;-82
2022/04/08 00:07:54;;;;;;;0.10;0.10;;;8.90;99.90;;;;;;4986871;28;20259;-82
2022/04/08 00:10:19;;;;;;;0.10;0.10;;;8.90;99.90;;;;;;4986245;28;20198;-82
2022/04/08 00:12:45;;;;;;;0.20;0.20;;;8.90;99.90;;;;;;4986991;28;20554;-82
2022/04/08 00:15:11;;;;;;;0.10;0.10;;;8.90;99.90;;;;;;4988295;28;20256;-82
2022/04/08 00:17:36;;;;;;;0.20;0.20;;;8.90;99.90;;;;;;4987101;28;20201;-82
2022/04/08 00:20:03;;;;;;;0.40;0.20;;;8.90;99.90;;;;;;4996034;28;20189;-83
2022/04/08 00:22:29;;;;;;;0.10;0.10;;;8.90;99.90;;;;;;4988773;28;20267;-82
2022/04/08 00:24:55;;;;;;;0.00;0.00;;;8.90;99.90;;;;;;4987156;28;20312;-83
2022/04/08 00:27:20;;;;;;;0.20;0.20;;;8.90;99.90;;;;;;4987476;28;20204;-82
2022/04/08 00:29:46;;;;;;;0.20;0.10;;;8.90;99.90;;;;;;4986989;28;20198;-82
2022/04/08 00:32:11;;;;;;;0.10;0.10;;;8.90;99.90;;;;;;4987969;28;20220;-83
2022/04/08 00:34:37;;;;;;;0.30;0.30;;;8.90;99.90;;;;;;4986638;28;20205;-82
2022/04/08 00:37:03;;;;;;;0.10;0.10;;;8.80;99.90;;;;;;4986748;28;20228;-83
2022/04/08 00:39:28;;;;;;;0.10;0.10;;;8.80;99.90;;;;;;4986093;28;20189;-83
2022/04/08 00:41:54;;;;;;;0.43;0.40;;;8.80;99.90;;;;;;4986074;28;20231;-83
2022/04/08 00:44:19;;;;;;;0.53;0.53;;;8.80;99.90;;;;;;4985880;28;20185;-82
2022/04/08 00:46:45;;;;;;;0.23;0.23;;;8.80;99.90;;;;;;4985626;28;20212;-82
2022/04/08 00:49:11;;;;;;;0.10;0.10;;;8.80;99.90;;;;;;4986035;28;20191;-82
2022/04/08 00:51:36;;;;;;;0.10;0.10;;;8.80;99.90;;;;;;4986628;28;20191;-82
2022/04/08 00:54:03;;;;;;;0.10;0.10;;;8.70;99.90;;;;;;4987242;28;20192;-83
2022/04/08 00:56:30;;;;;;;0.83;0.17;;;8.80;99.90;;;;;;4987627;28;20293;-83
2022/04/08 00:58:57;;;;;;;0.10;0.10;;;8.80;99.90;;;;;;4986377;28;20217;-82
2022/04/08 01:01:24;;;;;;;0.33;0.33;;;8.80;99.90;;;;;;4986650;28;20280;-82
2022/04/08 01:03:52;;;;;;;0.50;0.50;;;8.70;99.90;;;;;;4985973;28;20278;-83
2022/04/08 01:06:21;;;;;;;0.07;0.07;;;8.70;99.90;;;;;;4985578;28;20548;-82
2022/04/08 01:08:49;;;;;;;0.47;0.30;;;8.70;99.90;;;;;;4986648;28;20177;-82
2022/04/08 01:11:15;;;;;;;2.43;0.97;;;8.70;99.90;;;;;;4987265;28;20628;-82
2022/04/08 01:13:40;;;;;;;0.10;0.10;;;8.70;99.90;;;;;;4985955;28;20187;-83
2022/04/08 01:16:07;;;;;;;0.10;0.10;;;8.80;99.90;;;;;;4985982;28;20210;-83
2022/04/08 01:18:32;;;;;;;0.13;0.13;;;8.80;99.90;;;;;;4985328;28;20279;-82
2022/04/08 01:20:58;;;;;;;0.10;0.10;;;8.80;99.90;;;;;;4987168;28;20797;-82
2022/04/08 01:23:24;;;;;;;0.20;0.20;;;8.80;99.90;;;;;;4986993;28;20664;-82
2022/04/08 01:25:49;;;;;;;0.10;0.10;;;8.80;99.90;;;;;;5001834;28;20266;-82
2022/04/08 01:28:15;;;;;;;0.43;0.43;;;8.80;99.90;;;;;;4985831;28;20221;-82
2022/04/08 01:30:40;;;;;;;0.43;0.43;;;8.80;99.90;;;;;;4985957;28;20271;-82
2022/04/08 01:33:06;;;;;;;0.27;0.23;;;8.80;99.90;;;;;;4986312;28;20188;-82
2022/04/08 01:35:31;;;;;;;0.30;0.30;;;8.80;99.90;;;;;;4986494;28;20241;-83
2022/04/08 01:37:57;;;;;;;0.30;0.30;;;8.80;99.90;;;;;;4981618;28;20271;-83
2022/04/08 01:40:23;;;;;;;0.40;0.40;;;8.90;99.90;;;;;;4989826;28;20270;-83
2022/04/08 01:42:48;;;;;;;0.00;0.00;;;8.90;99.90;;;;;;4990516;28;20651;-82
2022/04/08 01:45:14;;;;;;;4.60;0.70;;;8.90;99.90;;;;;;4990491;28;20618;-82
2022/04/08 01:47:39;;;;;;;0.27;0.20;;;8.90;99.90;;;;;;4990729;28;20210;-83
2022/04/08 01:50:07;;;;;;;0.77;0.20;;;8.90;99.90;;;;;;4992109;28;20223;-83
2022/04/08 01:52:32;;;;;;;0.37;0.23;;;8.90;99.90;;;;;;4990564;28;20606;-82
2022/04/08 01:54:58;;;;;;;0.47;0.33;;;8.90;99.90;;;;;;4991906;28;20207;-82
2022/04/08 01:57:24;;;;;;;0.00;0.00;;;8.90;99.90;;;;;;4992008;28;20188;-83
2022/04/08 01:59:52;;;;;;;0.10;0.10;;;9.00;99.90;;;;;;4992025;28;21159;-82
2022/04/08 02:02:18;;;;;;;1.13;0.60;;;9.00;99.90;;;;;;4991823;28;20544;-82
2022/04/08 02:04:43;;;;;;;0.10;0.10;;;9.00;99.90;;;;;;4989891;28;20265;-82
2022/04/08 02:07:09;;;;;;;0.60;0.60;;;9.00;99.90;;;;;;4991998;28;20235;-83
2022/04/08 02:09:35;;;;;;;1.83;0.27;;;9.00;99.90;;;;;;4992859;28;20188;-82
2022/04/08 02:12:00;;;;;;;0.10;0.10;;;9.00;99.90;;;;;;4990319;28;20193;-83
2022/04/08 02:14:26;;;;;;;0.77;0.77;;;9.00;99.90;;;;;;4990037;28;20601;-82
2022/04/08 02:16:52;;;;;;;0.07;0.07;;;9.00;99.90;;;;;;4990411;28;20220;-83
2022/04/08 02:19:17;;;;;;;0.10;0.10;;;9.00;99.90;;;;;;4991118;28;20195;-83
2022/04/08 02:21:44;;;;;;;0.10;0.10;;;9.00;99.90;;;;;;4990063;28;20271;-82
2022/04/08 02:24:09;;;;;;;0.10;0.10;;;9.00;99.90;;;;;;4989517;28;20198;-82
2022/04/08 02:26:35;;;;;;;0.10;0.10;;;8.70;99.90;;;;;;4991377;28;20266;-82
2022/04/08 02:29:01;;;;;;;0.10;0.10;;;8.00;99.90;;;;;;4989358;28;20617;-83
2022/04/08 02:31:26;;;;;;;0.97;0.70;;;7.70;99.90;;;;;;4989936;28;20187;-83
2022/04/08 02:33:52;;;;;;;1.23;1.13;;;7.40;99.90;;;;;;4989304;28;20837;-82
2022/04/08 02:36:17;;;;;;;0.00;0.00;;;7.40;99.90;;;;;;4991763;28;20227;-83
2022/04/08 02:38:43;;;;;;;0.10;0.10;;;7.40;99.90;;;;;;4991960;28;20192;-82
2022/04/08 02:41:08;;;;;;;0.10;0.10;;;7.60;99.90;;;;;;4990465;28;20188;-82
2022/04/08 02:43:34;;;;;;;0.93;0.20;;;7.40;99.90;;;;;;4990558;28;20704;-82
2022/04/08 02:46:01;;;;;;;0.10;0.10;;;7.60;99.90;;;;;;4989994;28;20259;-83
2022/04/08 02:48:26;;;;;;;0.10;0.10;;;7.60;99.90;;;;;;4988657;28;20265;-82
2022/04/08 02:50:52;;;;;;;0.10;0.10;;;7.50;99.90;;;;;;4988162;28;20199;-82
2022/04/08 02:53:17;;;;;;;0.10;0.10;;;7.20;99.90;;;;;;4988472;28;20188;-82
2022/04/08 02:55:43;;;;;;;0.10;0.10;;;7.30;99.90;;;;;;4988672;28;20204;-82
2022/04/08 02:58:08;;;;;;;0.10;0.10;;;7.10;99.90;;;;;;4987830;28;20198;-82
2022/04/08 03:00:34;;;;;;;0.10;0.10;;;7.10;99.90;;;;;;4988835;28;20264;-82
2022/04/08 03:02:59;;;;;;;0.10;0.10;;;7.20;99.90;;;;;;4988547;28;20671;-82
2022/04/08 03:05:25;;;;;;;0.03;0.03;;;7.20;99.90;;;;;;4988671;28;20212;-82
2022/04/08 03:07:50;;;;;;;0.10;0.10;;;7.00;99.90;;;;;;4988329;28;20215;-82
2022/04/08 03:10:16;;;;;;;0.10;0.10;;;7.00;99.90;;;;;;4987925;28;20194;-82
2022/04/08 03:12:41;;;;;;;0.10;0.10;;;7.00;99.90;;;;;;4989382;28;20221;-82
2022/04/08 03:15:07;;;;;;;0.00;0.00;;;7.10;99.90;;;;;;4988536;28;20219;-83
2022/04/08 03:17:35;;;;;;;0.10;0.10;;;7.00;99.90;;;;;;4988149;28;20278;-82
2022/04/08 03:20:00;;;;;;;0.00;0.00;;;7.00;99.90;;;;;;4987001;28;20250;-82
2022/04/08 03:22:26;;;;;;;0.07;0.07;;;6.80;99.90;;;;;;4987411;28;20184;-83
2022/04/08 03:24:52;;;;;;;0.00;0.00;;;6.90;99.90;;;;;;4988892;28;20229;-83
2022/04/08 03:27:18;;;;;;;0.00;0.00;;;6.90;99.90;;;;;;4986871;28;20207;-83
2022/04/08 03:29:43;;;;;;;0.03;0.03;;;6.80;99.90;;;;;;4988577;28;20191;-82
2022/04/08 03:32:10;;;;;;;0.40;0.40;;;6.70;99.90;;;;;;4987614;28;20187;-82
2022/04/08 03:34:35;;;;;;;0.10;0.10;;;6.50;99.90;;;;;;4996146;28;20259;-82
2022/04/08 03:37:01;;;;;;;0.10;0.10;;;6.50;99.90;;;;;;4989938;28;20279;-82
2022/04/08 03:39:26;;;;;;;0.20;0.20;;;6.50;99.90;;;;;;4989612;28;20230;-83
2022/04/08 03:41:53;;;;;;;0.10;0.10;;;6.50;99.90;;;;;;4989801;28;20693;-82
2022/04/08 03:44:19;;;;;;;0.10;0.10;;;6.50;99.90;;;;;;4989557;28;20179;-82
2022/04/08 03:46:46;;;;;;;0.10;0.10;;;6.50;99.90;;;;;;4987730;28;20222;-82
2022/04/08 03:49:14;;;;;;;0.10;0.10;;;6.50;99.90;;;;;;4988468;28;20184;-82
2022/04/08 03:51:43;;;;;;;0.00;0.00;;;6.60;99.90;;;;;;4987455;28;20270;-82
2022/04/08 03:54:09;;;;;;;0.43;0.30;;;6.60;99.90;;;;;;4987789;28;20274;-83
2022/04/08 03:56:35;;;;;;;0.10;0.10;;;6.60;99.90;;;;;;4988850;28;20263;-83
2022/04/08 03:59:01;;;;;;;0.10;0.10;;;6.70;99.90;;;;;;4989190;28;20188;-83
2022/04/08 04:01:27;;;;;;;0.10;0.10;;;6.60;99.90;;;;;;5003394;28;20250;-83
2022/04/08 04:03:52;;;;;;;0.10;0.10;;;6.70;99.90;;;;;;4988483;28;20190;-83
2022/04/08 04:06:18;;;;;;;0.17;0.17;;;6.80;99.90;;;;;;4987659;28;20225;-82
2022/04/08 04:08:44;;;;;;;0.10;0.10;;;6.70;99.90;;;;;;4988544;28;21074;-83
2022/04/08 04:11:14;;;;;;;0.10;0.10;;;6.80;99.90;;;;;;4987410;28;20180;-82
2022/04/08 04:13:40;;;;;;;0.00;0.00;;;6.90;99.90;;;;;;4987971;28;20654;-82
2022/04/08 04:16:06;;;;;;;0.10;0.10;;;6.90;99.90;;;;;;5003889;28;20206;-82
2022/04/08 04:18:31;;;;;;;0.10;0.10;;;6.90;99.90;;;;;;4989603;28;20192;-82
2022/04/08 04:20:57;;;;;;;0.20;0.20;;;6.90;99.90;;;;;;4978154;28;20192;-83
2022/04/08 04:23:23;;;;;;;0.10;0.10;;;6.90;99.90;;;;;;4987927;28;20927;-83
2022/04/08 04:25:48;;;;;;;0.00;0.00;;;6.90;99.90;;;;;;4987187;28;20202;-82
2022/04/08 04:28:15;;;;;;;0.10;0.10;;;6.80;99.90;;;;;;4986524;28;20317;-83
2022/04/08 04:30:40;;;;;;;0.20;0.20;;;6.80;99.90;;;;;;4988539;28;20242;-82
2022/04/08 04:33:07;;;;;;;0.03;0.03;;;6.80;99.90;;;;;;4987901;28;20195;-83
2022/04/08 04:35:36;;;;;;;0.10;0.10;;;6.90;99.90;;;;;;4987501;28;20350;-83
2022/04/08 04:38:02;;;;;;;0.10;0.10;;;6.90;99.90;;;;;;4986308;28;20192;-82
2022/04/08 04:40:28;;;;;;;0.10;0.10;;;7.00;99.90;;;;;;4981463;28;20195;-82
2022/04/08 04:42:55;;;;;;;0.10;0.10;;;7.10;99.90;;;;;;4985306;28;20199;-82
2022/04/08 04:45:21;;;;;;;0.10;0.10;;;7.20;99.90;;;;;;4985467;28;20208;-83
2022/04/08 04:47:47;;;;;;;0.00;0.00;;;7.20;99.90;;;;;;4987762;28;20684;-82
2022/04/08 04:50:13;;;;;;;0.00;0.00;;;7.30;99.90;;;;;;4986938;28;21103;-82
2022/04/08 04:52:38;;;;;;;0.00;0.00;;;7.40;99.90;;;;;;4984230;28;20181;-82
2022/04/08 04:55:05;;;;;;;0.10;0.10;;;7.50;99.90;;;;;;4984661;28;20750;-82
2022/04/08 04:57:31;;;;;;;0.10;0.10;;;7.60;99.90;;;;;;4986326;28;20684;-82
2022/04/08 04:59:56;;;;;;;0.40;0.37;;;7.60;99.90;;;;;;4985370;28;20180;-82
2022/04/08 05:02:22;;;;;;;0.00;0.00;;;7.60;99.90;;;;;;4989221;28;20186;-82
2022/04/08 05:04:47;;;;;;;0.10;0.10;;;7.60;99.90;;;;;;4985862;28;20183;-82
2022/04/08 05:07:13;;;;;;;0.10;0.10;;;7.60;99.90;;;;;;4986536;28;20211;-82
2022/04/08 05:09:40;;;;;;;0.13;0.13;;;7.60;99.90;;;;;;4984430;28;20207;-81
2022/04/08 05:12:07;;;;;;;0.10;0.10;;;7.60;99.90;;;;;;4988234;28;20681;-82
2022/04/08 05:14:33;;;;;;;0.00;0.00;;;7.60;99.90;;;;;;4988461;28;20210;-80
2022/04/08 05:16:58;;;;;;;0.10;0.10;;;7.60;99.90;;;;;;4990859;28;20651;-80
2022/04/08 05:19:24;;;;;;;0.10;0.10;;;7.70;99.90;;;;;;4988074;28;20189;-80
2022/04/08 05:21:52;;;;;;;0.00;0.00;;;7.70;99.90;;;;;;4989736;28;20191;-80
2022/04/08 05:24:18;;;;;;;0.10;0.10;;;7.80;99.90;;;;;;4988362;28;20278;-80
2022/04/08 05:26:43;;;;;;;0.30;0.30;;;7.80;99.90;;;;;;4987909;28;20215;-80
2022/04/08 05:29:09;;;;;;;0.10;0.10;;;7.80;99.90;;;;;;4988213;28;20195;-79
2022/04/08 05:31:34;;;;;;;0.13;0.13;;;7.90;99.90;;;;;;4989479;28;20244;-79
2022/04/08 05:34:00;;;;;;;0.10;0.10;;;7.90;99.90;;;;;;4988309;28;21191;-79
2022/04/08 05:36:26;;;;;;;0.30;0.20;;;7.80;99.90;;;;;;4990757;28;20229;-79
2022/04/08 05:38:51;;;;;;;0.00;0.00;;;7.80;99.90;;;;;;4992895;28;20196;-80
2022/04/08 05:41:17;;;;;;;0.10;0.10;;;7.90;99.90;;;;;;4991745;28;20752;-80
2022/04/08 05:43:44;;;;;;;0.10;0.10;;;8.00;99.90;;;;;;4990970;28;20190;-80
2022/04/08 05:46:13;;;;;;;0.10;0.10;;;8.10;99.90;;;;;;4991741;28;20202;-80
2022/04/08 05:48:39;;;;;;;0.00;0.00;;;8.20;99.90;;;;;;4991976;28;20226;-80
2022/04/08 05:51:04;;;;;;;0.10;0.10;;;8.20;99.90;;;;;;4991755;28;20195;-80
2022/04/08 05:53:30;;;;;;;0.10;0.10;;;8.30;99.90;;;;;;4993824;28;20558;-80
2022/04/08 05:55:59;;;;;;;0.10;0.10;;;8.40;99.90;;;;;;4993750;28;20218;-80
2022/04/08 05:58:25;;;;;;;0.20;0.20;;;8.50;99.90;;;;;;4992038;28;20238;-80
2022/04/08 06:00:50;;;;;;;0.10;0.10;;;8.50;99.90;;;;;;4989600;28;20193;-80
2022/04/08 06:03:16;;;;;;;0.23;0.23;;;8.50;99.90;;;;;;4991442;28;20208;-80
2022/04/08 06:05:42;;;;;;;0.20;0.20;;;8.50;99.90;;;;;;4990287;28;20212;-80
2022/04/08 06:08:07;;;;;;;0.10;0.10;;;8.60;99.90;;;;;;4992055;28;20210;-80
2022/04/08 06:10:34;;;;;;;0.10;0.10;;;8.60;99.90;;;;;;4991960;28;21137;-80
2022/04/08 06:13:01;;;;;;;0.10;0.10;;;8.60;99.90;;;;;;4986770;28;20246;-80
2022/04/08 06:15:27;;;;;;;0.10;0.10;;;8.80;99.90;;;;;;4993524;28;20294;-80
2022/04/08 06:17:57;;;;;;;0.20;0.20;;;8.90;99.90;;;;;;4991123;28;20200;-80
2022/04/08 06:20:24;;;;;;;0.10;0.10;;;8.90;99.90;;;;;;4991277;28;20219;-80
2022/04/08 06:22:50;;;;;;;0.10;0.10;;;9.00;99.90;;;;;;4990981;28;20217;-80
2022/04/08 06:25:24;;;;;;;0.10;0.10;;;9.20;99.90;;;;;;4990952;28;20199;-79
2022/04/08 06:28:03;;;;;;;0.10;0.10;;;9.30;99.90;;;;;;4992404;28;20574;-81
2022/04/08 06:30:30;;;;;;;0.23;0.23;;;9.50;99.90;;;;;;4983185;28;20672;-81
2022/04/08 06:32:56;;;;;;;0.10;0.10;;;9.50;99.90;;;;;;4980933;28;20637;-80
2022/04/08 06:35:22;;;;;;;0.07;0.07;;;9.40;99.90;;;;;;4991015;28;20229;-81
2022/04/08 06:37:48;;;;;;;0.40;0.30;;;9.60;99.90;;;;;;4989360;28;20187;-80
2022/04/08 06:40:14;;;;;;;0.20;0.20;;;9.70;99.90;;;;;;4987832;28;20204;-80
2022/04/08 06:42:40;;;;;;;0.47;0.30;;;9.30;99.90;;;;;;5003016;28;20194;-80
2022/04/08 06:45:07;;;;;;;0.10;0.10;;;9.60;99.90;;;;;;4998013;28;20586;-81
2022/04/08 06:47:33;;;;;;;0.17;0.17;;;9.80;99.90;;;;;;4979856;28;20211;-80
2022/04/08 06:49:58;;;;;;;0.10;0.10;;;9.80;99.90;;;;;;4988784;28;20199;-81
2022/04/08 06:52:24;;;;;;;0.63;0.60;;;9.90;99.90;;;;;;4987622;28;20185;-81
2022/04/08 06:54:49;;;;;;;0.73;0.30;;;10.00;99.90;;;;;;4987703;28;20213;-81
2022/04/08 06:57:15;;;;;;;0.10;0.10;;;10.10;99.90;;;;;;4986020;28;20188;-81
2022/04/08 06:59:41;;;;;;;0.10;0.10;;;10.00;99.90;;;;;;4987866;28;20194;-80
2022/04/08 07:02:08;;;;;;;0.40;0.40;;;10.00;99.90;;;;;;4989367;28;20283;-80
2022/04/08 07:04:37;;;;;;;0.10;0.10;;;10.00;99.90;;;;;;4987608;28;20191;-80
2022/04/08 07:07:06;;;;;;;0.27;0.27;;;10.00;99.90;;;;;;4989056;28;20218;-80
2022/04/08 07:09:33;;;;;;;0.10;0.10;;;10.10;99.90;;;;;;4987647;28;20194;-80
2022/04/08 07:11:59;;;;;;;0.83;0.20;;;10.10;99.90;;;;;;4988436;28;20196;-81
2022/04/08 07:14:24;;;;;;;0.73;0.63;;;10.10;99.90;;;;;;4988090;28;20188;-80
2022/04/08 07:16:50;;;;;;;0.10;0.10;;;10.20;99.90;;;;;;4987778;28;20199;-81
2022/04/08 07:19:15;;;;;;;0.73;0.70;;;10.20;99.90;;;;;;4988043;28;20192;-82
2022/04/08 07:21:41;;;;;;;0.53;0.53;;;10.30;99.90;;;;;;4989864;28;20191;-83
2022/04/08 07:24:07;;;;;;;1.03;0.60;;;10.20;99.90;;;;;;4988942;28;20187;-82
2022/04/08 07:26:32;;;;;;;0.07;0.07;;;10.20;99.90;;;;;;4980473;28;20773;-82
2022/04/08 07:28:58;;;;;;;0.23;0.23;;;10.20;99.90;;;;;;4991503;28;21329;-81
2022/04/08 07:31:23;;;;;;;0.00;0.00;;;10.20;99.90;;;;;;4988137;28;20254;-80
2022/04/08 07:33:49;;;;;;;0.57;0.57;;;10.10;99.90;;;;;;4987746;28;20202;-79
2022/04/08 07:36:15;;;;;;;0.00;0.00;;;10.10;99.90;;;;;;4986213;28;20215;-80
2022/04/08 07:38:41;;;;;;;0.37;0.30;;;10.10;99.90;;;;;;4988372;28;20194;-80
2022/04/08 07:41:06;;;;;;;0.03;0.03;;;10.10;99.90;;;;;;4988143;28;20538;-80
2022/04/08 07:43:32;;;;;;;3.20;0.73;;;10.10;99.90;;;;;;4988351;28;20270;-79
2022/04/08 07:45:57;;;;;;;0.47;0.47;;;10.10;99.90;;;;;;4988777;28;21207;-81
2022/04/08 07:48:23;;;;;;;0.10;0.10;;;10.00;99.90;;;;;;4987526;28;20741;-80
2022/04/08 07:50:48;;;;;;;0.13;0.13;;;9.90;99.90;;;;;;4986377;28;20194;-80
2022/04/08 07:53:15;;;;;;;5.67;0.53;;;9.80;99.90;;;;;;4986795;28;20666;-80
2022/04/08 07:55:40;;;;;;;0.30;0.30;;;9.80;99.90;;;;;;4986177;28;20207;-80
2022/04/08 07:58:06;;;;;;;0.20;0.20;;;9.90;99.90;;;;;;4987096;28;20206;-80
2022/04/08 08:00:32;;;;;;;0.20;0.20;;;9.90;99.90;;;;;;4987071;28;20202;-80
2022/04/08 08:02:58;;;;;;;1.00;0.40;;;9.90;99.90;;;;;;4987409;28;20191;-80
2022/04/08 08:05:24;;;;;;;0.10;0.10;;;10.00;99.90;;;;;;4986746;28;20209;-80
2022/04/08 08:07:55;;;;;;;0.10;0.10;;;10.00;99.90;;;;;;4993508;28;20219;-80
2022/04/08 08:10:21;;;;;;;0.20;0.20;;;10.00;99.90;;;;;;4986712;28;20183;-80
2022/04/08 08:12:48;;;;;;;3.50;0.40;;;9.90;99.90;;;;;;4986814;28;20216;-80
2022/04/08 08:15:15;;;;;;;0.10;0.10;;;9.70;99.90;;;;;;4988302;28;20568;-81
2022/04/08 08:17:41;;;;;;;0.17;0.17;;;9.70;99.90;;;;;;5001315;28;20224;-80
2022/04/08 08:20:08;;;;;;;0.13;0.13;;;9.70;99.90;;;;;;4987713;28;20644;-81
2022/04/08 08:22:35;;;;;;;0.13;0.10;;;9.70;99.90;;;;;;4984531;28;20198;-80
2022/04/08 08:25:01;;;;;;;0.10;0.10;;;9.70;99.90;;;;;;4984240;28;20886;-80
2022/04/08 08:27:27;;;;;;;0.20;0.20;;;9.90;99.90;;;;;;4985169;28;20223;-80
2022/04/08 08:29:52;;;;;;;0.10;0.10;;;10.00;99.90;;;;;;4987893;28;20194;-80
2022/04/08 08:32:18;;;;;;;0.53;0.50;;;10.00;99.90;;;;;;4984605;28;20215;-80
2022/04/08 08:34:43;;;;;;;0.23;0.20;;;10.00;99.90;;;;;;4985771;28;20559;-80
2022/04/08 08:37:10;;;;;;;0.53;0.33;;;10.10;99.90;;;;;;4986608;28;20210;-80
2022/04/08 08:39:36;;;;;;;0.13;0.13;;;10.00;99.90;;;;;;4986204;28;20196;-81
2022/04/08 08:42:03;;;;;;;0.17;0.17;;;10.10;99.90;;;;;;4986574;28;20668;-81
2022/04/08 08:44:29;;;;;;;0.10;0.10;;;10.10;99.90;;;;;;4986013;28;20213;-80
2022/04/08 08:47:00;;;;;;;0.10;0.10;;;9.90;99.90;;;;;;4984775;28;20216;-81
2022/04/08 08:49:29;;;;;;;0.20;0.20;;;9.90;99.90;;;;;;4986666;28;20186;-80
2022/04/08 08:51:58;;;;;;;0.27;0.27;;;9.90;99.90;;;;;;4984889;28;20659;-80
2022/04/08 08:54:24;;;;;;;0.23;0.23;;;9.80;99.90;;;;;;4985893;28;20575;-80
2022/04/08 08:56:49;;;;;;;0.43;0.43;;;9.70;99.90;;;;;;4985193;28;20207;-80
2022/04/08 08:59:16;;;;;;;0.10;0.10;;;9.70;99.90;;;;;;4986921;28;20253;-80
2022/04/08 09:01:41;;;;;;;0.20;0.20;;;9.60;99.90;;;;;;4986313;28;20267;-80
2022/04/08 09:04:07;;;;;;;0.40;0.40;;;9.60;99.90;;;;;;4986246;28;20312;-80
2022/04/08 09:06:42;;;;;;;0.83;0.70;;;9.60;99.90;;;;;;4986753;28;20214;-80
2022/04/08 09:09:11;;;;;;;0.50;0.50;;;9.60;99.90;;;;;;4987768;28;20747;-80
2022/04/08 09:11:37;;;;;;;1.10;1.00;;;9.60;99.90;;;;;;4984359;28;20186;-80
2022/04/08 09:14:04;;;;;;;0.60;0.60;;;9.60;99.90;;;;;;4984591;28;20191;-80
2022/04/08 09:16:35;;;;;;;0.10;0.10;;;9.50;99.90;;;;;;4985536;28;20253;-80
2022/04/08 09:19:13;;;;;;;0.23;0.23;;;9.50;99.90;;;;;;4985703;28;20183;-80
2022/04/08 09:21:38;;;;;;;0.37;0.37;;;9.40;99.90;;;;;;4986546;28;20423;-80
2022/04/08 09:24:06;;;;;;;2.70;0.30;;;9.30;99.90;;;;;;4986045;28;20187;-80
2022/04/08 09:26:36;;;;;;;0.10;0.10;;;9.20;99.90;;;;;;4987315;28;20214;-80
2022/04/08 09:29:02;;;;;;;0.07;0.07;;;9.10;99.90;;;;;;4984529;28;20181;-80
2022/04/08 09:31:28;;;;;;;0.20;0.20;;;9.10;99.90;;;;;;4999705;28;20187;-80
2022/04/08 09:33:53;;;;;;;0.27;0.27;;;9.20;99.90;;;;;;4986305;28;20185;-80
2022/04/08 09:36:32;;;;;;;0.10;0.10;;;9.20;99.90;;;;;;4986207;28;20221;-82
2022/04/08 09:38:59;;;;;;;0.10;0.10;;;9.10;99.90;;;;;;4985164;28;20244;-80
2022/04/08 09:41:52;;;;;;;0.10;0.10;;;9.20;99.90;;;;;;4987022;28;20225;-81
2022/04/08 09:44:26;;;;;;;0.10;0.10;;;9.30;99.90;;;;;;4988407;28;20191;-80
2022/04/08 09:46:52;;;;;;;0.10;0.10;;;9.60;99.90;;;;;;4986612;28;20606;-80
2022/04/08 09:49:18;;;;;;;0.10;0.10;;;9.60;99.90;;;;;;4990090;28;20191;-80
2022/04/08 09:51:49;;;;;;;0.10;0.10;;;9.70;99.90;;;;;;4990333;28;20195;-80
2022/04/08 09:54:20;;;;;;;0.30;0.30;;;9.80;99.90;;;;;;4988443;28;20186;-80
2022/04/08 09:56:46;;;;;;;0.10;0.10;;;9.50;99.90;;;;;;4991063;28;20688;-80
2022/04/08 09:59:20;;;;;;;1.07;0.60;;;9.60;99.90;;;;;;4998448;28;20248;-80
2022/04/08 10:01:47;;;;;;;0.40;0.40;;;9.70;99.90;;;;;;4993311;28;20185;-80
2022/04/08 10:04:13;;;;;;;0.10;0.10;;;9.80;99.90;;;;;;4982775;28;20187;-80
2022/04/08 10:06:40;;;;;;;0.10;0.10;;;9.80;99.90;;;;;;4992164;28;20207;-80
2022/04/08 10:09:08;;;;;;;0.10;0.10;;;9.80;99.90;;;;;;4993973;28;20190;-80
2022/04/08 10:12:17;;;;;;;0.10;0.10;;;9.80;99.90;;;;;;4993345;28;20182;-80
2022/04/08 10:15:11;;;;;;;0.10;0.10;;;9.70;99.90;;;;;;4923989;29;21346;-80
2022/04/08 10:17:36;;;;;;;0.20;0.20;;;9.30;99.90;;;;;;4922519;29;20200;-80
2022/04/08 10:20:19;;;;;;;0.17;0.17;;;9.40;99.90;;;;;;4961295;28;20208;-81
2022/04/08 10:22:45;;;;;;;0.10;0.10;;;9.40;99.90;;;;;;4992429;28;20187;-80
2022/04/08 10:25:15;;;;;;;0.10;0.10;;;9.40;99.90;;;;;;4993118;28;20258;-79
2022/04/08 10:27:43;;;;;;;1.13;0.20;;;9.40;99.90;;;;;;4992163;28;20217;-80
2022/04/08 10:30:21;;;;;;;0.37;0.37;;;9.50;99.90;;;;;;4991816;28;20216;-80
2022/04/08 10:32:47;;;;;;;0.20;0.20;;;9.60;99.90;;;;;;4991501;28;20207;-80
2022/04/08 10:35:19;;;;;;;0.30;0.30;;;9.60;99.90;;;;;;4990849;28;20225;-80
2022/04/08 10:38:14;;;;;;;0.17;0.17;;;9.60;99.90;;;;;;4992523;28;20194;-80
2022/04/08 10:40:40;;;;;;;0.10;0.10;;;9.20;99.90;;;;;;4989517;28;20218;-80
2022/04/08 10:43:09;;;;;;;0.10;0.10;;;9.30;99.90;;;;;;4991962;28;20191;-80
2022/04/08 10:45:36;;;;;;;0.10;0.10;;;9.40;99.90;;;;;;4992563;28;20828;-80
2022/04/08 10:48:32;;;;;;;0.30;0.30;;;9.60;99.90;;;;;;4991664;28;20262;-80
2022/04/08 10:51:14;;;;;;;0.60;0.60;;;9.70;99.90;;;;;;4991589;28;20183;-80
2022/04/08 10:53:41;;;;;;;0.33;0.33;;;9.70;99.90;;;;;;4993161;28;20189;-80
2022/04/08 10:56:13;;;;;;;0.17;0.17;;;9.70;99.90;;;;;;4992459;28;20207;-80
2022/04/08 10:58:46;;;;;;;0.20;0.20;;;9.70;99.90;;;;;;4992070;28;20230;-80
2022/04/08 11:01:18;;;;;;;0.20;0.20;;;9.40;99.90;;;;;;4990221;28;20252;-80
2022/04/08 11:03:52;;;;;;;0.10;0.10;;;8.90;99.90;;;;;;4989481;28;20665;-80
2022/04/08 11:06:19;;;;;;;0.10;0.10;;;8.60;99.90;;;;;;4989592;28;20216;-80
2022/04/08 11:08:45;;;;;;;0.10;0.10;;;8.50;99.90;;;;;;4988611;28;20700;-80
2022/04/08 11:11:11;;;;;;;0.20;0.20;;;8.50;99.90;;;;;;4989535;28;20185;-80
2022/04/08 11:13:41;;;;;;;0.10;0.10;;;8.40;99.90;;;;;;4989667;28;20644;-80
2022/04/08 11:16:07;;;;;;;0.10;0.10;;;8.40;99.90;;;;;;4990559;28;20277;-80
2022/04/08 11:18:33;;;;;;;0.20;0.20;;;8.40;99.90;;;;;;4988243;28;20193;-80
2022/04/08 11:20:58;;;;;;;0.10;0.10;;;8.40;99.90;;;;;;4987549;28;20231;-80
2022/04/08 11:23:29;;;;;;;0.10;0.10;;;8.50;99.90;;;;;;4988222;28;20194;-80
2022/04/08 11:25:55;;;;;;;0.37;0.13;;;8.60;99.90;;;;;;4988279;28;20216;-80
2022/04/08 11:28:22;;;;;;;0.43;0.43;;;8.60;99.90;;;;;;4987651;28;20205;-80
2022/04/08 11:30:55;;;;;;;0.10;0.10;;;8.70;99.90;;;;;;4988430;28;20202;-80
2022/04/08 11:33:21;;;;;;;0.10;0.10;;;8.80;99.90;;;;;;4991901;28;20184;-80
2022/04/08 11:35:53;;;;;;;0.10;0.10;;;8.70;99.90;;;;;;4991782;28;20210;-80
2022/04/08 11:38:22;;;;;;;0.10;0.10;;;8.80;99.90;;;;;;4985904;28;20250;-80
2022/04/08 11:40:48;;;;;;;0.10;0.10;;;8.60;99.90;;;;;;4985479;28;20274;-80
2022/04/08 11:43:18;;;;;;;0.10;0.10;;;8.50;99.90;;;;;;4988262;28;20191;-80
2022/04/08 11:45:48;;;;;;;0.10;0.10;;;8.60;99.90;;;;;;4988248;28;20221;-81
2022/04/08 11:48:15;;;;;;;0.20;0.20;;;8.60;99.90;;;;;;4980782;28;20265;-79
2022/04/08 11:50:43;;;;;;;0.10;0.10;;;8.60;99.90;;;;;;4988736;28;20180;-80
2022/04/08 11:53:22;;;;;;;0.07;0.07;;;8.70;99.90;;;;;;4988574;28;20216;-80
2022/04/08 11:55:59;;;;;;;0.10;0.10;;;8.80;99.90;;;;;;4986510;28;20213;-80
2022/04/08 11:58:27;;;;;;;0.10;0.10;;;8.90;99.90;;;;;;4992335;28;20184;-80
2022/04/08 12:00:53;;;;;;;0.10;0.10;;;9.00;99.90;;;;;;4988629;28;20177;-80
2022/04/08 12:03:26;;;;;;;0.20;0.20;;;9.00;99.90;;;;;;4987272;28;20684;-80
2022/04/08 12:05:52;;;;;;;0.10;0.10;;;9.10;99.90;;;;;;4987072;28;20785;-80
2022/04/08 12:08:18;;;;;;;0.50;0.50;;;9.10;99.90;;;;;;4986081;28;20214;-80
2022/04/08 12:10:45;;;;;;;0.10;0.10;;;9.10;99.90;;;;;;4988187;28;20193;-80
2022/04/08 12:13:19;;;;;;;0.20;0.20;;;9.00;99.90;;;;;;4988151;28;20192;-80
2022/04/08 12:15:47;;;;;;;0.10;0.10;;;9.00;99.90;;;;;;4987172;28;20210;-80
2022/04/08 12:18:23;;;;;;;0.10;0.10;;;9.10;99.90;;;;;;4985982;28;20191;-79
2022/04/08 12:21:02;;;;;;;0.10;0.10;;;9.00;99.90;;;;;;4983831;28;20546;-80
2022/04/08 12:23:28;;;;;;;0.10;0.10;;;9.00;99.90;;;;;;4982717;28;20670;-81
2022/04/08 12:25:56;;;;;;;0.10;0.10;;;9.00;99.90;;;;;;4984304;28;20254;-80
2022/04/08 12:28:23;;;;;;;0.20;0.20;;;9.10;99.90;;;;;;5001658;28;20212;-80
2022/04/08 12:30:50;;;;;;;0.10;0.10;;;9.10;99.90;;;;;;4989099;28;20188;-80
2022/04/08 12:33:17;;;;;;;0.10;0.10;;;9.00;99.90;;;;;;4988205;28;20186;-80
2022/04/08 12:35:43;;;;;;;0.10;0.10;;;8.70;99.90;;;;;;4988880;28;20228;-80
2022/04/08 12:38:09;;;;;;;0.10;0.10;;;8.70;99.90;;;;;;4988889;28;20243;-80
2022/04/08 12:40:34;;;;;;;0.10;0.10;;;8.60;99.90;;;;;;4990791;28;20304;-80
2022/04/08 12:43:03;;;;;;;0.10;0.10;;;8.60;99.90;;;;;;4989391;28;20208;-80
2022/04/08 12:45:31;;;;;;;0.00;0.00;;;8.60;99.90;;;;;;4987505;28;20238;-80
2022/04/08 12:47:56;;;;;;;0.10;0.10;;;8.60;99.90;;;;;;4986511;28;20272;-80
2022/04/08 12:50:23;;;;;;;0.10;0.10;;;8.70;99.90;;;;;;4988124;28;20195;-80
2022/04/08 12:52:49;;;;;;;0.10;0.10;;;8.70;99.90;;;;;;4988143;28;20184;-80
2022/04/08 12:55:15;;;;;;;0.30;0.30;;;8.60;99.90;;;;;;4986350;28;20205;-80